Terminal Aerodrome Forecast
Issued by NWS Shreveport, LA

Home | Current Version | Previous Version | Text Only | Print | Product List | Glossary On
Versions: 1 2 3 4 5 6 7 8 9 10 11 12 13 14 15 16 17
533
FTUS44 KSHV 271607 AAA
TAFGGG
TAF AMD
KGGG 271607Z 2716/2812 VRB05KT 5SM -TSRA BR SCT035 OVC060CB
      TEMPO 2716/2720 19012G20KT 2SM TSRA BR OVC035CB
     FM272300 17012G18KT P6SM VCTS BKN020 OVC040CB
     FM280500 18008KT P6SM BKN015 OVC040=

USA.gov is the U.S. government's official web portal to all federal, state and local government web resources and services.